Terminal Aerodrome Forecast
Issued by NWS

Home | Current Version | Previous Version | Text Only | Print | Product List | Glossary On
Versions: 1 2 3 4 5 6 7 8 9 10 11 12 13 14 15 16 17 18 19 20 21 22 23 24 25 26 27 28 29 30 31 32 33 34 35 36 37 38 39 40 41 42 43 44 45 46 47 48 49 50
000
FTAK31 PANC 210157 AAC
TAFADL
TAF AMD
PADL 210157Z 2102/2124 19013G23KT P6SM SCT013 BKN040
     FM210300 17010KT P6SM VCSH BKN045
     FM211500 15007KT 4SM -SHSN BKN025
     FM211900 10008KT P6SM -SHRASN SCT025 BKN040=

USA.gov is the U.S. government's official web portal to all federal, state and local government web resources and services.